Terminal Aerodrome Forecast
Issued by NWS

Home | Current Version | Previous Version | Text Only | Print | Product List | Glossary On
Versions: 1 2 3 4 5 6 7 8 9 10 11 12 13 14 15 16 17 18 19 20 21 22
000
FTPA31 PHFO 201136
TAFMDY
TAF
PMDY 201136Z 2012/2112 15014KT P6SM VCSH SCT025 BKN040
      TEMPO 2012/2016 5SM SHRA BR BKN025
     FM201600 15015G20KT 4SM SHRA BR BKN025 OVC035
     FM210200 15012KT P6SM VCSH SCT025 OVC035=

USA.gov is the U.S. government's official web portal to all federal, state and local government web resources and services.